Time;durP1;ratioP1;P1;durP2;ratioP2;P2;SDS_P1;SDS_P2;PMS_P1;PMS_P2;Temp;Humidity;BMP_temperature;BMP_pressure;BME280_temperature;BME280_humidity;BME280_pressure;Samples;Min_cycle;Max_cycle;Signal;HPM_P1;HPM_P2
2022/10/29 00:00:40;;;;;;;23.75;10.27;;;;;;;15.99;96.31;102176.88;5042388;28;20075;-51
2022/10/29 00:03:06;;;;;;;23.77;10.80;;;;;;;16.01;96.03;102179.50;5030003;28;20466;-50
2022/10/29 00:05:32;;;;;;;24.52;10.23;;;;;;;15.99;95.98;102173.41;5030989;28;20033;-51
2022/10/29 00:07:58;;;;;;;26.27;10.23;;;;;;;15.98;95.69;102164.75;5029287;28;20029;-50
2022/10/29 00:10:23;;;;;;;27.92;10.85;;;;;;;15.94;96.31;102155.13;5027233;28;20455;-49
2022/10/29 00:12:48;;;;;;;28.40;11.70;;;;;;;15.87;96.21;102155.78;5030028;28;20037;-48
2022/10/29 00:15:14;;;;;;;25.45;11.45;;;;;;;15.89;96.27;102150.63;5028887;28;20025;-50
2022/10/29 00:17:39;;;;;;;24.50;11.65;;;;;;;15.86;96.25;102154.03;5032332;28;20394;-49
2022/10/29 00:20:05;;;;;;;22.60;10.57;;;;;;;15.89;96.38;102151.50;5026488;28;20410;-48
2022/10/29 00:22:31;;;;;;;26.90;10.40;;;;;;;15.87;95.87;102152.31;5026157;28;20033;-50
2022/10/29 00:24:56;;;;;;;25.20;9.73;;;;;;;15.83;95.33;102153.94;5026650;28;20499;-51
2022/10/29 00:27:22;;;;;;;24.55;11.25;;;;;;;15.82;95.79;102165.16;5028895;28;20037;-51
2022/10/29 00:29:47;;;;;;;24.05;11.80;;;;;;;15.78;95.30;102166.81;5030222;28;20037;-49
2022/10/29 00:32:12;;;;;;;22.35;10.40;;;;;;;15.78;94.96;102153.84;5030987;28;20044;-49
2022/10/29 00:34:38;;;;;;;21.23;11.23;;;;;;;15.77;95.04;102164.16;5033796;28;20044;-49
2022/10/29 00:37:03;;;;;;;21.83;10.05;;;;;;;15.74;94.97;102166.69;5033943;28;20087;-51
2022/10/29 00:39:29;;;;;;;20.13;10.32;;;;;;;15.73;94.76;102164.94;5032668;28;20028;-50
2022/10/29 00:41:55;;;;;;;22.50;10.65;;;;;;;15.68;95.04;102166.50;5031412;28;20041;-50
2022/10/29 00:44:32;;;;;;;22.58;10.00;;;;;;;15.73;95.10;102164.94;5033096;28;20026;-51
2022/10/29 00:47:03;;;;;;;24.55;9.52;;;;;;;15.70;94.71;102162.22;5031472;28;20103;-50
2022/10/29 00:49:31;;;;;;;22.77;9.40;;;;;;;15.68;95.10;102163.91;5032973;28;20029;-50
2022/10/29 00:51:59;;;;;;;22.53;10.73;;;;;;;15.66;95.65;102170.78;5034050;28;20033;-50
2022/10/29 00:54:27;;;;;;;24.30;10.02;;;;;;;15.65;95.78;102163.81;5030456;28;20419;-50
2022/10/29 00:57:02;;;;;;;24.65;10.35;;;;;;;15.67;95.90;102169.94;5029834;28;20033;-47
2022/10/29 00:59:27;;;;;;;22.35;9.57;;;;;;;15.64;95.56;102169.84;5031587;28;20060;-49
2022/10/29 01:01:54;;;;;;;20.58;9.25;;;;;;;15.66;95.75;102171.66;5028292;28;20053;-50
2022/10/29 01:04:20;;;;;;;19.20;8.85;;;;;;;15.67;96.02;102170.81;5027858;28;20025;-51
2022/10/29 01:06:46;;;;;;;19.33;8.65;;;;;;;15.66;96.11;102173.38;5032630;28;20430;-49
2022/10/29 01:09:12;;;;;;;20.77;9.43;;;;;;;15.64;96.71;102157.75;5033595;28;20550;-50
2022/10/29 01:12:09;;;;;;;17.02;9.20;;;;;;;15.70;96.71;102157.03;5035648;28;20116;-50
2022/10/29 01:15:08;;;;;;;20.85;9.73;;;;;;;15.73;96.40;102158.03;5029790;28;20049;-51
2022/10/29 01:18:16;;;;;;;27.05;9.85;;;;;;;15.76;96.20;102155.50;5029698;28;20163;-51
2022/10/29 01:21:06;;;;;;;18.67;10.90;;;;;;;15.72;97.25;102147.63;5030230;28;20024;-51
2022/10/29 01:23:34;;;;;;;23.45;9.60;;;;;;;15.68;97.35;102135.41;5029500;28;20040;-47
2022/10/29 01:26:08;;;;;;;29.02;10.32;;;;;;;15.73;97.42;102141.59;5033326;28;20029;-50
2022/10/29 01:29:11;;;;;;;25.05;10.20;;;;;;;15.76;97.13;102139.94;5024157;28;20034;-50
2022/10/29 01:31:42;;;;;;;24.60;10.00;;;;;;;15.68;97.97;102148.34;5028792;28;20029;-50
2022/10/29 01:34:59;;;;;;;18.95;10.40;;;;;;;15.69;97.38;102150.09;5031084;28;20029;-49
2022/10/29 01:37:34;;;;;;;21.58;10.27;;;;;;;15.66;97.47;102143.13;5027408;28;20049;-51
2022/10/29 01:40:16;;;;;;;24.20;9.88;;;;;;;15.64;97.46;102138.72;5033770;28;20470;-48
2022/10/29 01:42:56;;;;;;;22.73;9.77;;;;;;;15.62;97.39;102130.00;5032493;28;20425;-50
2022/10/29 01:45:32;;;;;;;22.13;9.93;;;;;;;15.55;97.81;102122.06;5034527;28;20048;-50
2022/10/29 01:48:07;;;;;;;20.23;9.88;;;;;;;15.60;97.44;102124.78;5034533;28;20499;-50
2022/10/29 01:50:35;;;;;;;20.30;9.77;;;;;;;15.54;97.21;102120.31;5037110;28;20059;-51
2022/10/29 01:53:04;;;;;;;25.27;9.30;;;;;;;15.56;97.26;102112.56;5036160;28;20527;-50
2022/10/29 01:55:34;;;;;;;24.50;11.18;;;;;;;15.53;97.02;102110.78;5033670;28;20678;-51
2022/10/29 01:58:03;;;;;;;17.13;9.25;;;;;;;15.48;97.30;102096.81;5034461;28;20036;-51
2022/10/29 02:00:41;;;;;;;20.40;9.40;;;;;;;15.52;97.12;102096.03;5045952;28;20033;-50
2022/10/29 02:03:16;;;;;;;20.05;9.70;;;;;;;15.50;96.98;102096.84;5026202;28;20025;-49
2022/10/29 02:05:59;;;;;;;15.43;9.35;;;;;;;15.49;96.63;102098.56;5028065;28;20592;-49
2022/10/29 02:08:42;;;;;;;18.92;9.35;;;;;;;15.38;96.55;102097.38;5023249;28;20029;-51
2022/10/29 02:11:17;;;;;;;22.42;9.80;;;;;;;15.36;nan;102098.19;5032030;28;20443;-51
2022/10/29 02:13:54;;;;;;;18.63;9.90;;;;;;;15.36;96.84;102096.47;5031069;28;20037;-50
2022/10/29 02:16:23;;;;;;;23.25;10.77;;;;;;;15.31;97.16;102103.22;5031200;28;20029;-49
2022/10/29 02:18:49;;;;;;;18.42;9.57;;;;;;;15.27;96.20;102094.47;5030046;28;20053;-51
2022/10/29 02:21:19;;;;;;;23.88;10.13;;;;;;;15.31;96.58;102098.06;5036181;28;20494;-50
2022/10/29 02:23:45;;;;;;;18.65;9.45;;;;;;;15.29;96.11;102100.59;5032543;28;20035;-49
2022/10/29 02:26:11;;;;;;;18.67;10.45;;;;;;;15.26;96.21;102095.31;5030203;28;20040;-49
2022/10/29 02:28:37;;;;;;;20.50;10.07;;;;;;;15.21;96.16;102089.13;5023943;28;20074;-49
2022/10/29 02:31:02;;;;;;;18.67;9.43;;;;;;;15.18;96.37;102085.59;5036700;28;20443;-49
2022/10/29 02:33:28;;;;;;;21.50;10.43;;;;;;;15.18;96.50;102076.09;5033943;28;20094;-50
2022/10/29 02:35:53;;;;;;;21.77;9.80;;;;;;;15.19;96.67;102083.03;5032548;28;20104;-49
2022/10/29 02:38:19;;;;;;;18.02;8.85;;;;;;;15.14;96.25;102082.00;5027483;28;20049;-50
2022/10/29 02:40:44;;;;;;;17.13;9.57;;;;;;;15.12;95.88;102070.75;5030904;28;20046;-49
2022/10/29 02:43:09;;;;;;;19.77;9.70;;;;;;;15.10;95.64;102071.50;5031562;28;20525;-49
2022/10/29 02:45:35;;;;;;;15.20;9.32;;;;;;;15.07;96.12;102076.63;5037231;28;20033;-50
2022/10/29 02:48:00;;;;;;;17.58;9.15;;;;;;;15.04;95.79;102069.63;5031634;28;20115;-50
2022/10/29 02:50:25;;;;;;;18.88;9.15;;;;;;;15.03;95.97;102060.09;5023945;28;20036;-50
2022/10/29 02:52:50;;;;;;;21.67;9.23;;;;;;;15.08;96.40;102063.72;5033531;28;20037;-51
2022/10/29 02:55:16;;;;;;;19.98;9.63;;;;;;;15.07;95.74;102067.13;5034749;28;20383;-50
2022/10/29 02:57:43;;;;;;;18.92;9.38;;;;;;;15.05;95.54;102065.34;5033771;28;20029;-49
2022/10/29 03:00:09;;;;;;;21.77;9.52;;;;;;;14.99;95.54;102063.47;5030290;28;20033;-49
2022/10/29 03:02:34;;;;;;;17.60;9.13;;;;;;;14.97;95.32;102059.91;5030992;28;20498;-49
2022/10/29 03:05:00;;;;;;;20.45;9.23;;;;;;;15.00;95.29;102063.50;5034049;28;20037;-47
2022/10/29 03:07:25;;;;;;;18.83;9.20;;;;;;;14.98;95.67;102062.56;5028631;28;20115;-51
2022/10/29 03:09:50;;;;;;;17.38;9.45;;;;;;;14.95;95.97;102059.88;5030047;28;20067;-50
2022/10/29 03:12:16;;;;;;;20.15;9.40;;;;;;;14.95;95.70;102057.28;5026495;28;20030;-49
2022/10/29 03:14:41;;;;;;;19.55;9.95;;;;;;;14.94;95.48;102045.19;5032075;28;20068;-50
2022/10/29 03:17:06;;;;;;;19.15;9.23;;;;;;;14.93;95.97;102048.63;5030083;28;20116;-51
2022/10/29 03:19:32;;;;;;;21.52;9.77;;;;;;;14.91;95.70;102046.78;5031785;28;20068;-51
2022/10/29 03:21:57;;;;;;;17.88;9.75;;;;;;;14.93;96.00;102037.38;5027383;28;20029;-50
2022/10/29 03:24:22;;;;;;;21.13;9.98;;;;;;;14.91;95.77;102045.09;5029093;28;20151;-50
2022/10/29 03:26:47;;;;;;;19.17;10.07;;;;;;;14.88;95.81;102045.00;5030160;28;20397;-50
2022/10/29 03:29:13;;;;;;;24.73;10.55;;;;;;;14.91;96.40;102044.22;5032042;28;20124;-50
2022/10/29 03:31:38;;;;;;;25.70;10.68;;;;;;;14.90;96.23;102042.44;5030220;28;20032;-49
2022/10/29 03:34:03;;;;;;;19.48;9.73;;;;;;;14.85;96.42;102039.72;5030738;28;20079;-50
2022/10/29 03:36:29;;;;;;;23.40;10.07;;;;;;;14.86;97.05;102041.47;5028359;28;20032;-51
2022/10/29 03:38:54;;;;;;;24.17;10.80;;;;;;;14.87;97.50;102038.06;5029387;28;20029;-49
2022/10/29 03:41:20;;;;;;;16.52;10.05;;;;;;;14.90;98.49;102042.44;5032106;28;20037;-50
2022/10/29 03:43:45;;;;;;;24.90;10.48;;;;;;;14.91;98.07;102033.84;5027848;28;20067;-47
2022/10/29 03:46:10;;;;;;;20.20;11.02;;;;;;;14.86;98.28;102031.13;5029043;28;20040;-48
2022/10/29 03:48:36;;;;;;;20.33;9.98;;;;;;;14.90;98.73;102027.78;5033424;28;20029;-51
2022/10/29 03:51:06;;;;;;;20.13;10.48;;;;;;;14.89;98.97;102020.84;5025215;28;20033;-50
2022/10/29 03:53:34;;;;;;;20.35;10.07;;;;;;;14.89;99.00;102031.22;5026634;28;20076;-51
2022/10/29 03:55:59;;;;;;;24.58;10.88;;;;;;;14.91;99.25;102019.19;5028620;28;20625;-51
2022/10/29 03:58:26;;;;;;;24.83;11.02;;;;;;;14.90;99.33;102029.50;5025891;28;20034;-50
2022/10/29 04:01:02;;;;;;;20.92;11.10;;;;;;;14.93;99.81;102032.19;5031699;28;20099;-49
2022/10/29 04:03:29;;;;;;;21.55;11.18;;;;;;;14.92;99.45;102026.13;5028899;28;20091;-49
2022/10/29 04:05:55;;;;;;;26.33;11.02;;;;;;;14.93;99.22;102009.75;5030202;28;20071;-51
2022/10/29 04:08:21;;;;;;;24.58;11.90;;;;;;;14.91;99.27;102014.00;5035766;28;20037;-50
2022/10/29 04:10:49;;;;;;;28.83;10.85;;;;;;;14.94;99.51;102008.06;5038955;28;20033;-50
2022/10/29 04:13:15;;;;;;;21.40;10.63;;;;;;;14.94;99.61;102000.28;5034671;28;20038;-49
2022/10/29 04:15:41;;;;;;;23.20;10.68;;;;;;;14.92;99.54;101994.16;5037342;28;20034;-49
2022/10/29 04:18:07;;;;;;;19.60;11.05;;;;;;;14.91;99.79;101998.47;5032103;28;20021;-51
2022/10/29 04:20:33;;;;;;;20.35;11.20;;;;;;;14.89;99.75;102000.16;5034021;28;20079;-50
2022/10/29 04:22:58;;;;;;;20.08;10.48;;;;;;;14.86;99.68;101994.84;5033875;28;20022;-50
2022/10/29 04:25:23;;;;;;;20.45;10.50;;;;;;;14.89;99.28;101994.09;5032307;28;20039;-50
2022/10/29 04:27:49;;;;;;;23.83;11.15;;;;;;;14.89;99.79;101989.78;5031408;28;20029;-50
2022/10/29 04:30:14;;;;;;;26.08;10.90;;;;;;;14.87;99.75;101988.88;5034238;28;20053;-51
2022/10/29 04:32:40;;;;;;;22.58;10.40;;;;;;;14.91;99.34;101989.81;5033481;28;20025;-50
2022/10/29 04:35:05;;;;;;;22.40;11.50;;;;;;;14.86;99.53;101984.50;5031801;28;20371;-50
2022/10/29 04:37:31;;;;;;;21.95;10.82;;;;;;;14.87;99.90;101975.06;5033880;28;20025;-50
2022/10/29 04:39:56;;;;;;;21.45;11.13;;;;;;;14.89;99.36;101976.84;5033239;28;20033;-47
2022/10/29 04:42:21;;;;;;;22.73;10.15;;;;;;;14.90;99.30;101985.47;5033293;28;20047;-50
2022/10/29 04:44:47;;;;;;;19.55;10.80;;;;;;;14.89;99.43;101984.59;5036115;28;20498;-51
2022/10/29 04:47:12;;;;;;;20.25;10.80;;;;;;;14.89;99.60;101982.00;5034526;28;20068;-50
2022/10/29 04:49:38;;;;;;;21.67;11.30;;;;;;;14.85;98.93;101992.22;5039329;28;20579;-48
2022/10/29 04:52:03;;;;;;;27.38;11.20;;;;;;;14.88;99.11;101992.34;5032586;28;20065;-49
2022/10/29 04:54:29;;;;;;;18.73;10.57;;;;;;;14.81;98.68;101990.41;5030811;28;20513;-50
2022/10/29 04:56:54;;;;;;;18.38;10.82;;;;;;;14.82;98.88;101994.75;5028368;28;20115;-49
2022/10/29 04:59:19;;;;;;;25.23;11.35;;;;;;;14.83;98.91;101992.19;5029993;28;20076;-51
2022/10/29 05:01:45;;;;;;;22.90;11.15;;;;;;;14.82;98.70;101992.16;5032634;28;20041;-49
2022/10/29 05:04:10;;;;;;;21.60;11.00;;;;;;;14.81;98.95;101993.00;5030759;28;20436;-50
2022/10/29 05:06:35;;;;;;;21.83;11.07;;;;;;;14.81;98.76;101986.13;5032899;28;20037;-49
2022/10/29 05:09:01;;;;;;;24.08;12.25;;;;;;;14.78;99.07;101980.81;5032911;28;20119;-49
2022/10/29 05:11:26;;;;;;;22.52;11.02;;;;;;;14.76;99.02;101979.91;5037322;28;20029;-51
2022/10/29 05:13:51;;;;;;;25.85;12.93;;;;;;;14.78;99.01;101982.53;5036904;28;20124;-50
2022/10/29 05:16:17;;;;;;;27.33;12.23;;;;;;;14.78;99.35;101972.19;5033831;28;20029;-50
2022/10/29 05:18:42;;;;;;;24.27;11.35;;;;;;;14.74;99.37;101984.16;5035940;28;20053;-49
2022/10/29 05:21:07;;;;;;;22.55;11.57;;;;;;;14.74;99.49;101977.28;5032320;28;20065;-50
2022/10/29 05:23:33;;;;;;;23.20;12.13;;;;;;;14.72;99.14;101971.16;5035417;28;20103;-51
2022/10/29 05:25:58;;;;;;;25.40;12.38;;;;;;;14.75;99.50;101963.50;5027386;28;20029;-49
2022/10/29 05:28:23;;;;;;;20.52;12.30;;;;;;;14.74;99.85;101977.28;5031823;28;20147;-50
2022/10/29 05:30:51;;;;;;;21.05;12.18;;;;;;;14.74;99.90;101973.78;5033329;28;20461;-46
2022/10/29 05:33:22;;;;;;;22.80;12.20;;;;;;;14.76;100.00;101977.34;5027840;28;20048;-50
2022/10/29 05:35:48;;;;;;;25.35;12.35;;;;;;;14.73;99.85;101969.47;5032821;28;20025;-49
2022/10/29 05:38:14;;;;;;;24.67;12.80;;;;;;;14.74;100.00;101963.44;5032140;28;20034;-50
2022/10/29 05:40:41;;;;;;;23.63;12.65;;;;;;;14.73;100.00;101966.88;5033614;28;20036;-50
2022/10/29 05:43:07;;;;;;;26.25;12.23;;;;;;;14.73;100.00;101959.09;5030815;28;20087;-50
2022/10/29 05:45:33;;;;;;;23.10;13.07;;;;;;;14.72;100.00;101955.63;5031977;28;20041;-48
2022/10/29 05:48:01;;;;;;;25.95;13.25;;;;;;;14.76;100.00;101951.44;5030145;28;20474;-51
2022/10/29 05:50:27;;;;;;;24.33;12.68;;;;;;;14.73;100.00;101959.09;5032617;28;20040;-49
2022/10/29 05:52:57;;;;;;;28.45;12.80;;;;;;;14.73;100.00;101957.38;5035168;28;20043;-49
2022/10/29 05:55:23;;;;;;;26.17;13.35;;;;;;;14.73;100.00;101961.69;5033891;28;20060;-49
2022/10/29 05:57:48;;;;;;;28.50;13.43;;;;;;;14.74;100.00;101953.09;5035073;28;20115;-49
2022/10/29 06:00:14;;;;;;;22.48;12.05;;;;;;;14.75;100.00;101949.69;5027446;28;20421;-48
2022/10/29 06:02:43;;;;;;;29.00;13.60;;;;;;;14.72;100.00;101940.09;5034558;28;20043;-49
2022/10/29 06:05:08;;;;;;;26.15;13.52;;;;;;;14.74;100.00;101941.03;5032184;28;20033;-50
2022/10/29 06:07:33;;;;;;;26.13;13.18;;;;;;;14.73;100.00;101931.50;5027976;28;20088;-50
2022/10/29 06:09:59;;;;;;;27.45;13.10;;;;;;;14.75;100.00;101928.97;5026709;28;20107;-51
2022/10/29 06:12:24;;;;;;;26.98;14.05;;;;;;;14.74;100.00;101922.91;5032493;28;20041;-50
2022/10/29 06:14:49;;;;;;;27.65;13.50;;;;;;;14.75;100.00;101935.03;5032927;28;20047;-50
2022/10/29 06:17:15;;;;;;;24.33;13.68;;;;;;;14.75;100.00;101937.63;5033608;28;20104;-49
2022/10/29 06:19:40;;;;;;;25.65;13.20;;;;;;;14.78;100.00;101944.56;5033676;28;20116;-50
2022/10/29 06:22:05;;;;;;;26.27;13.32;;;;;;;14.80;100.00;101949.78;5034636;28;20025;-47
2022/10/29 06:24:31;;;;;;;27.15;13.57;;;;;;;14.77;100.00;101945.41;5030999;28;20072;-50
2022/10/29 06:26:56;;;;;;;30.05;13.23;;;;;;;14.81;100.00;101936.91;5027510;28;20029;-51
2022/10/29 06:29:21;;;;;;;29.42;13.40;;;;;;;14.83;100.00;101952.47;5026375;28;20156;-51
2022/10/29 06:31:47;;;;;;;27.75;13.55;;;;;;;14.81;100.00;101952.44;5030432;28;20147;-49
2022/10/29 06:34:13;;;;;;;29.58;13.90;;;;;;;14.83;100.00;101957.66;5022959;28;20037;-49
2022/10/29 06:36:39;;;;;;;24.70;14.30;;;;;;;14.85;100.00;101959.44;5027584;28;20021;-48
2022/10/29 06:39:04;;;;;;;27.73;13.52;;;;;;;14.83;100.00;101944.72;5027177;28;20040;-50
2022/10/29 06:41:29;;;;;;;27.58;13.27;;;;;;;14.82;100.00;101951.59;5031912;28;20504;-50
2022/10/29 06:43:55;;;;;;;25.33;13.88;;;;;;;14.82;100.00;101951.59;5047532;28;20495;-50
2022/10/29 06:46:20;;;;;;;25.67;13.32;;;;;;;14.85;100.00;101949.09;5032663;28;20057;-48
2022/10/29 06:48:45;;;;;;;31.20;13.68;;;;;;;14.84;100.00;101956.81;5034801;28;20033;-50
2022/10/29 06:51:11;;;;;;;23.77;13.45;;;;;;;14.83;100.00;101961.13;5029338;28;20075;-47
2022/10/29 06:53:36;;;;;;;26.27;12.88;;;;;;;14.82;100.00;101963.69;5034583;28;20047;-51
2022/10/29 06:56:01;;;;;;;25.85;13.30;;;;;;;14.88;100.00;101958.69;5030474;28;20513;-50
2022/10/29 06:58:27;;;;;;;28.92;13.45;;;;;;;14.82;100.00;101954.19;5030837;28;20315;-51
2022/10/29 07:00:52;;;;;;;22.95;12.80;;;;;;;14.84;100.00;101964.59;5033152;28;20129;-46
2022/10/29 07:03:19;;;;;;;27.77;13.35;;;;;;;14.88;100.00;101956.97;5030435;28;20452;-49
2022/10/29 07:05:45;;;;;;;25.80;13.88;;;;;;;14.86;100.00;101965.50;5040434;28;20166;-50
2022/10/29 07:08:11;;;;;;;28.48;14.05;;;;;;;14.87;100.00;101955.22;5025415;28;20536;-50
2022/10/29 07:10:37;;;;;;;30.17;13.52;;;;;;;14.86;100.00;101958.59;5030528;28;20140;-48
2022/10/29 07:13:03;;;;;;;26.02;13.43;;;;;;;14.86;100.00;101956.00;5031273;28;20052;-50
2022/10/29 07:15:29;;;;;;;27.10;13.32;;;;;;;14.87;100.00;101952.63;5031230;28;20037;-49
2022/10/29 07:18:05;;;;;;;25.42;13.35;;;;;;;14.90;100.00;101963.03;5032789;28;20034;-48
2022/10/29 07:20:33;;;;;;;27.98;13.75;;;;;;;14.86;100.00;101958.59;5029566;28;20409;-50
2022/10/29 07:23:00;;;;;;;29.73;14.23;;;;;;;14.91;100.00;101958.75;5028295;28;20025;-50
2022/10/29 07:25:26;;;;;;;30.95;14.80;;;;;;;14.92;100.00;101956.19;5031777;28;20124;-50
2022/10/29 07:27:51;;;;;;;29.73;14.38;;;;;;;14.92;100.00;101952.72;5026892;28;20038;-50
2022/10/29 07:30:17;;;;;;;29.98;14.05;;;;;;;14.95;100.00;101943.34;5026927;28;20042;-47
2022/10/29 07:32:42;;;;;;;30.30;14.68;;;;;;;14.97;100.00;101938.19;5026838;28;20033;-50
2022/10/29 07:35:08;;;;;;;31.02;14.13;;;;;;;14.96;100.00;101946.81;5029510;28;20116;-47
2022/10/29 07:37:34;;;;;;;27.40;13.15;;;;;;;14.96;100.00;101929.53;5027177;28;20036;-50
2022/10/29 07:39:59;;;;;;;26.63;13.88;;;;;;;15.00;100.00;101941.75;5028473;28;20108;-51
2022/10/29 07:42:24;;;;;;;32.25;15.02;;;;;;;15.01;100.00;101938.31;5027729;28;20033;-47
2022/10/29 07:44:50;;;;;;;23.48;14.00;;;;;;;15.06;100.00;101945.34;5033293;28;20031;-51
2022/10/29 07:47:15;;;;;;;27.40;15.05;;;;;;;15.07;100.00;101944.50;5033130;28;20401;-51
2022/10/29 07:49:40;;;;;;;28.95;14.23;;;;;;;15.08;100.00;101943.66;5037330;28;20516;-49
2022/10/29 07:52:06;;;;;;;28.48;15.10;;;;;;;15.10;100.00;101936.81;5033457;28;20026;-51
2022/10/29 07:54:31;;;;;;;31.38;14.95;;;;;;;15.09;100.00;101935.94;5035832;28;20660;-51
2022/10/29 07:56:56;;;;;;;30.58;15.07;;;;;;;15.10;100.00;101927.31;5040878;28;20028;-51
2022/10/29 07:59:22;;;;;;;25.77;15.15;;;;;;;15.12;100.00;101935.16;5033603;28;20065;-50
2022/10/29 08:01:47;;;;;;;33.38;15.00;;;;;;;15.14;100.00;101933.47;5040406;28;20041;-51
2022/10/29 08:04:12;;;;;;;33.40;15.60;;;;;;;15.17;100.00;101930.97;5031658;28;20022;-51
2022/10/29 08:06:38;;;;;;;28.73;15.23;;;;;;;15.18;100.00;101936.19;5031223;28;20091;-51
2022/10/29 08:09:04;;;;;;;27.42;14.98;;;;;;;15.21;100.00;101928.47;5032290;28;20053;-50
2022/10/29 08:11:31;;;;;;;28.48;14.43;;;;;;;15.23;100.00;101932.00;5035579;28;20454;-51
2022/10/29 08:13:56;;;;;;;30.92;16.60;;;;;;;15.27;100.00;101935.53;5044224;28;20025;-51
2022/10/29 08:16:22;;;;;;;26.33;15.45;;;;;;;15.31;100.00;101927.00;5030744;28;20490;-50
2022/10/29 08:18:47;;;;;;;34.70;14.90;;;;;;;15.32;100.00;101925.28;5031612;28;20052;-52
2022/10/29 08:21:12;;;;;;;27.13;14.50;;;;;;;15.35;100.00;101922.78;5034470;28;20041;-50
2022/10/29 08:23:38;;;;;;;24.08;14.73;;;;;;;15.35;100.00;101913.31;5028508;28;20037;-52
2022/10/29 08:26:03;;;;;;;28.02;15.10;;;;;;;15.38;100.00;101923.75;5035453;28;20711;-52
2022/10/29 08:28:28;;;;;;;25.90;14.60;;;;;;;15.43;100.00;101926.44;5031540;28;20495;-50
2022/10/29 08:30:54;;;;;;;27.77;15.05;;;;;;;15.47;100.00;101913.63;5033018;28;20126;-50
2022/10/29 08:33:19;;;;;;;27.92;15.30;;;;;;;15.48;100.00;101899.81;5033192;28;20033;-51
2022/10/29 08:35:45;;;;;;;31.10;15.68;;;;;;;15.50;100.00;101902.44;5032538;28;20108;-51
2022/10/29 08:38:10;;;;;;;25.15;14.98;;;;;;;15.52;100.00;101901.63;5031336;28;20026;-51
2022/10/29 08:40:35;;;;;;;25.05;15.57;;;;;;;15.55;100.00;101904.28;5034437;28;20037;-51
2022/10/29 08:43:32;;;;;;;32.10;16.63;;;;;;;15.63;100.00;101914.00;5033270;28;20037;-50
2022/10/29 08:45:58;;;;;;;29.00;16.65;;;;;;;15.64;100.00;101919.22;5032329;28;20079;-51
2022/10/29 08:48:33;;;;;;;32.17;16.52;;;;;;;15.66;100.00;101921.88;5040190;28;20026;-51
2022/10/29 08:51:01;;;;;;;27.65;16.50;;;;;;;15.72;100.00;101930.66;5022176;28;20025;-51
2022/10/29 08:53:35;;;;;;;28.15;16.50;;;;;;;15.76;100.00;101916.03;5028463;28;20037;-51
2022/10/29 08:56:04;;;;;;;31.48;16.58;;;;;;;15.76;100.00;101916.03;5026384;28;20052;-52
2022/10/29 08:58:36;;;;;;;24.63;16.15;;;;;;;15.78;100.00;101910.06;5029266;28;20013;-51
2022/10/29 09:01:01;;;;;;;27.52;16.45;;;;;;;15.81;100.00;101911.84;5029544;28;20029;-50
2022/10/29 09:03:28;;;;;;;32.08;16.35;;;;;;;15.82;100.00;101906.69;5025655;28;20474;-55
2022/10/29 09:06:14;;;;;;;29.88;16.33;;;;;;;15.86;100.00;101902.47;5036112;28;20064;-52
2022/10/29 09:09:01;;;;;;;28.35;16.50;;;;;;;15.88;100.00;101897.28;5035342;28;20425;-51
2022/10/29 09:11:53;;;;;;;31.73;15.95;;;;;;;15.93;100.00;101895.69;5036578;28;20056;-50
2022/10/29 09:14:27;;;;;;;34.80;17.33;;;;;;;15.94;100.00;101890.53;5030487;28;20489;-51
2022/10/29 09:17:19;;;;;;;29.42;17.77;;;;;;;16.00;100.00;101890.66;5021979;28;20111;-52
2022/10/29 09:19:53;;;;;;;32.70;17.52;;;;;;;16.04;100.00;101886.44;5021532;28;20044;-52
2022/10/29 09:22:27;;;;;;;27.35;16.67;;;;;;;16.07;100.00;101896.84;5033101;28;20044;-52
2022/10/29 09:24:58;;;;;;;30.90;17.52;;;;;;;16.11;100.00;101895.22;5020373;28;20021;-52
2022/10/29 09:27:27;;;;;;;31.15;16.75;;;;;;;16.13;100.00;101885.75;5027937;28;20033;-49
2022/10/29 09:30:01;;;;;;;35.97;18.92;;;;;;;16.16;100.00;101889.28;5022522;28;20029;-49
2022/10/29 09:32:39;;;;;;;31.25;16.80;;;;;;;16.18;100.00;101899.69;5031108;28;20108;-52
2022/10/29 09:35:16;;;;;;;29.75;16.42;;;;;;;16.19;100.00;101893.66;5034393;28;20025;-50
2022/10/29 09:37:50;;;;;;;27.63;16.52;;;;;;;16.18;100.00;101882.41;5029230;28;20029;-52
2022/10/29 09:40:26;;;;;;;30.10;17.15;;;;;;;16.22;100.00;101879.03;5034148;28;20025;-52
2022/10/29 09:42:52;;;;;;;31.92;17.50;;;;;;;16.23;100.00;101882.50;5034409;28;20474;-52
2022/10/29 09:45:27;;;;;;;36.60;16.85;;;;;;;16.25;100.00;101896.38;5033711;28;20028;-52
2022/10/29 09:48:03;;;;;;;29.17;18.05;;;;;;;16.30;100.00;101892.16;5029561;28;20516;-52
2022/10/29 09:50:47;;;;;;;34.35;16.45;;;;;;;16.31;100.00;101897.38;5032905;28;20029;-51
2022/10/29 09:53:12;;;;;;;30.85;16.77;;;;;;;16.32;100.00;101883.59;5034328;28;20037;-52
2022/10/29 09:55:43;;;;;;;27.15;15.88;;;;;;;16.36;100.00;101868.94;5040999;28;20032;-50
2022/10/29 09:58:19;;;;;;;24.08;16.23;;;;;;;16.39;100.00;101861.22;5034114;28;20028;-51
2022/10/29 10:00:44;;;;;;;31.20;16.48;;;;;;;16.44;100.00;101861.28;5027693;28;20038;-52
2022/10/29 10:03:15;;;;;;;28.52;16.05;;;;;;;16.49;100.00;101857.94;5033659;28;20043;-51
2022/10/29 10:06:02;;;;;;;30.48;16.45;;;;;;;16.54;100.00;101858.91;5042707;28;20025;-52
2022/10/29 10:08:28;;;;;;;37.00;15.88;;;;;;;16.58;100.00;101860.75;5033059;28;20040;-52
2022/10/29 10:11:00;;;;;;;27.63;16.65;;;;;;;16.67;100.00;101866.94;5032076;28;20069;-52
2022/10/29 10:13:31;;;;;;;32.95;16.33;;;;;;;16.78;100.00;101858.53;5034656;28;20441;-52
2022/10/29 10:16:04;;;;;;;30.02;16.05;;;;;;;16.89;100.00;101857.00;5036631;28;20021;-52
2022/10/29 10:18:30;;;;;;;29.90;15.18;;;;;;;17.04;100.00;101864.19;5031659;28;20422;-52
2022/10/29 10:21:05;;;;;;;26.33;14.75;;;;;;;17.16;100.00;101856.59;5031027;28;20017;-51
2022/10/29 10:23:51;;;;;;;23.83;14.32;;;;;;;17.26;100.00;101851.56;5029168;28;20068;-52
2022/10/29 10:26:34;;;;;;;24.98;14.43;;;;;;;17.38;100.00;101849.16;5034121;28;20016;-52
2022/10/29 10:29:16;;;;;;;25.23;12.88;;;;;;;17.52;100.00;101850.25;5035624;28;20036;-52
2022/10/29 10:31:46;;;;;;;27.15;11.20;;;;;;;17.61;98.91;101845.19;5027360;28;20037;-51
2022/10/29 10:34:17;;;;;;;23.05;10.63;;;;;;;17.69;98.47;101843.56;5031689;28;20071;-52
2022/10/29 10:36:47;;;;;;;21.40;9.55;;;;;;;17.80;97.76;101846.38;5032137;28;20021;-51
2022/10/29 10:39:25;;;;;;;25.30;10.43;;;;;;;17.87;97.17;101843.00;5031448;28;20087;-51
2022/10/29 10:41:51;;;;;;;22.65;9.05;;;;;;;17.97;96.12;101831.00;5027676;28;20021;-51
2022/10/29 10:44:19;;;;;;;25.58;10.43;;;;;;;18.06;95.38;101843.22;5034364;28;20032;-52
2022/10/29 10:46:46;;;;;;;18.38;9.55;;;;;;;18.16;94.46;101834.69;5032596;28;20075;-52
2022/10/29 10:49:17;;;;;;;18.33;9.30;;;;;;;18.21;93.91;101833.91;5032863;28;20029;-52
2022/10/29 10:51:49;;;;;;;19.63;8.80;;;;;;;18.30;93.04;101830.50;5029930;28;20031;-52
2022/10/29 10:54:28;;;;;;;18.35;8.90;;;;;;;18.39;93.63;101829.75;5031843;28;20045;-53
2022/10/29 10:56:58;;;;;;;;;;;;;;;18.42;95.29;101827.19;5035463;28;20397;-52
2022/10/29 10:59:29;;;;;;;20.60;8.32;;;;;;;18.56;91.42;101825.59;5033186;28;19927;-53
2022/10/29 11:01:59;;;;;;;20.27;8.30;;;;;;;18.61;91.62;101808.28;5034732;28;20426;-52
2022/10/29 11:04:32;;;;;;;22.75;8.20;;;;;;;18.70;91.45;101818.84;5032463;28;20033;-52
2022/10/29 11:07:03;;;;;;;21.67;7.80;;;;;;;18.77;89.33;101829.31;5023252;28;20068;-51
2022/10/29 11:09:34;;;;;;;16.58;8.00;;;;;;;18.84;89.07;101821.56;5029682;28;20433;-52
2022/10/29 11:12:05;;;;;;;20.58;7.50;;;;;;;18.95;88.98;101819.06;5025610;28;20470;-53
2022/10/29 11:14:52;;;;;;;20.38;6.78;;;;;;;19.03;89.34;101809.56;5028758;28;20502;-49